sensor_id;sensor_type;location;lat;lon;timestamp;temperature;humidity
20773;DHT22;10546;50.674;4.616;2023-02-05T00:00:04;9.40;99.90
20773;DHT22;10546;50.674;4.616;2023-02-05T00:02:31;9.30;99.90
20773;DHT22;10546;50.674;4.616;2023-02-05T00:04:57;9.40;99.90
20773;DHT22;10546;50.674;4.616;2023-02-05T00:07:22;9.40;99.90
20773;DHT22;10546;50.674;4.616;2023-02-05T00:09:48;9.40;99.90
20773;DHT22;10546;50.674;4.616;2023-02-05T00:12:14;9.40;99.90
20773;DHT22;10546;50.674;4.616;2023-02-05T00:14:39;9.30;99.90
20773;DHT22;10546;50.674;4.616;2023-02-05T00:17:05;9.20;99.90
20773;DHT22;10546;50.674;4.616;2023-02-05T00:19:31;9.10;99.90
20773;DHT22;10546;50.674;4.616;2023-02-05T00:21:56;9.20;99.90
20773;DHT22;10546;50.674;4.616;2023-02-05T00:24:22;9.20;99.90
20773;DHT22;10546;50.674;4.616;2023-02-05T00:26:47;9.20;99.90
20773;DHT22;10546;50.674;4.616;2023-02-05T07:43:11;6.90;99.90
20773;DHT22;10546;50.674;4.616;2023-02-05T07:45:36;6.90;99.90
20773;DHT22;10546;50.674;4.616;2023-02-05T07:48:02;6.90;99.90
20773;DHT22;10546;50.674;4.616;2023-02-05T07:50:28;6.80;99.90
20773;DHT22;10546;50.674;4.616;2023-02-05T07:52:53;6.70;99.90
20773;DHT22;10546;50.674;4.616;2023-02-05T07:55:19;6.70;99.90
20773;DHT22;10546;50.674;4.616;2023-02-05T07:57:44;6.70;99.90
20773;DHT22;10546;50.674;4.616;2023-02-05T08:00:11;6.60;99.90
20773;DHT22;10546;50.674;4.616;2023-02-05T08:02:37;6.60;99.90
20773;DHT22;10546;50.674;4.616;2023-02-05T08:05:03;6.60;99.90
20773;DHT22;10546;50.674;4.616;2023-02-05T08:07:28;6.50;99.90
20773;DHT22;10546;50.674;4.616;2023-02-05T08:09:54;6.50;99.90
20773;DHT22;10546;50.674;4.616;2023-02-05T08:12:19;6.50;99.90
20773;DHT22;10546;50.674;4.616;2023-02-05T08:14:45;6.50;99.90
20773;DHT22;10546;50.674;4.616;2023-02-05T08:17:11;6.50;99.90
20773;DHT22;10546;50.674;4.616;2023-02-05T08:19:36;6.50;99.90
20773;DHT22;10546;50.674;4.616;2023-02-05T08:22:02;6.50;99.90
20773;DHT22;10546;50.674;4.616;2023-02-05T08:24:27;6.50;99.90
20773;DHT22;10546;50.674;4.616;2023-02-05T08:26:55;6.50;99.90
20773;DHT22;10546;50.674;4.616;2023-02-05T08:29:20;6.60;99.90
20773;DHT22;10546;50.674;4.616;2023-02-05T08:31:46;6.60;99.90
20773;DHT22;10546;50.674;4.616;2023-02-05T08:34:11;6.60;99.90
20773;DHT22;10546;50.674;4.616;2023-02-05T08:36:37;6.50;99.90
20773;DHT22;10546;50.674;4.616;2023-02-05T08:39:03;6.60;99.90
20773;DHT22;10546;50.674;4.616;2023-02-05T08:41:29;6.60;99.90
20773;DHT22;10546;50.674;4.616;2023-02-05T08:43:54;6.60;99.90
20773;DHT22;10546;50.674;4.616;2023-02-05T08:46:22;6.60;99.90
20773;DHT22;10546;50.674;4.616;2023-02-05T08:48:50;6.70;99.90
20773;DHT22;10546;50.674;4.616;2023-02-05T08:51:17;6.70;99.90
20773;DHT22;10546;50.674;4.616;2023-02-05T08:53:44;6.80;99.90
20773;DHT22;10546;50.674;4.616;2023-02-05T08:56:10;6.70;99.90
20773;DHT22;10546;50.674;4.616;2023-02-05T08:58:37;7.00;99.90
20773;DHT22;10546;50.674;4.616;2023-02-05T09:01:13;7.00;99.90
20773;DHT22;10546;50.674;4.616;2023-02-05T09:03:39;7.00;99.90
20773;DHT22;10546;50.674;4.616;2023-02-05T09:06:08;7.10;99.90
20773;DHT22;10546;50.674;4.616;2023-02-05T09:08:34;7.10;99.90
20773;DHT22;10546;50.674;4.616;2023-02-05T09:11:00;7.20;99.90
20773;DHT22;10546;50.674;4.616;2023-02-05T09:13:26;7.20;99.90
20773;DHT22;10546;50.674;4.616;2023-02-05T09:15:53;7.40;99.90
20773;DHT22;10546;50.674;4.616;2023-02-05T09:18:18;7.50;99.90
20773;DHT22;10546;50.674;4.616;2023-02-05T09:20:46;7.60;99.90
20773;DHT22;10546;50.674;4.616;2023-02-05T09:23:14;7.60;99.90
20773;DHT22;10546;50.674;4.616;2023-02-05T09:25:41;7.30;99.90
20773;DHT22;10546;50.674;4.616;2023-02-05T09:28:09;7.40;99.90
20773;DHT22;10546;50.674;4.616;2023-02-05T09:30:36;7.30;99.90
20773;DHT22;10546;50.674;4.616;2023-02-05T09:33:02;7.40;99.90
20773;DHT22;10546;50.674;4.616;2023-02-05T09:35:27;7.40;99.90
20773;DHT22;10546;50.674;4.616;2023-02-05T09:37:53;7.40;99.90
20773;DHT22;10546;50.674;4.616;2023-02-05T09:40:21;7.50;99.90
20773;DHT22;10546;50.674;4.616;2023-02-05T09:46:24;7.90;99.90
20773;DHT22;10546;50.674;4.616;2023-02-05T09:49:01;7.90;99.90
20773;DHT22;10546;50.674;4.616;2023-02-05T09:51:36;7.60;99.90
20773;DHT22;10546;50.674;4.616;2023-02-05T09:54:31;7.40;99.90
20773;DHT22;10546;50.674;4.616;2023-02-05T09:56:58;7.30;99.90
20773;DHT22;10546;50.674;4.616;2023-02-05T09:59:27;7.40;99.90
20773;DHT22;10546;50.674;4.616;2023-02-05T10:01:58;7.20;99.90
20773;DHT22;10546;50.674;4.616;2023-02-05T10:04:24;7.20;99.90
20773;DHT22;10546;50.674;4.616;2023-02-05T10:26:09;7.30;99.90
20773;DHT22;10546;50.674;4.616;2023-02-05T10:29:10;7.30;99.90
20773;DHT22;10546;50.674;4.616;2023-02-05T10:36:59;8.00;99.90
20773;DHT22;10546;50.674;4.616;2023-02-05T10:39:29;8.00;99.90
20773;DHT22;10546;50.674;4.616;2023-02-05T10:42:21;7.90;99.90
20773;DHT22;10546;50.674;4.616;2023-02-05T10:44:55;8.00;99.90
20773;DHT22;10546;50.674;4.616;2023-02-05T10:47:55;8.00;99.90
20773;DHT22;10546;50.674;4.616;2023-02-05T10:52:51;7.70;99.90
20773;DHT22;10546;50.674;4.616;2023-02-05T10:55:16;7.60;99.90
20773;DHT22;10546;50.674;4.616;2023-02-05T10:57:42;7.70;99.90
20773;DHT22;10546;50.674;4.616;2023-02-05T11:00:21;7.50;99.90
20773;DHT22;10546;50.674;4.616;2023-02-05T11:02:53;7.40;99.90
20773;DHT22;10546;50.674;4.616;2023-02-05T11:05:29;7.40;99.90
20773;DHT22;10546;50.674;4.616;2023-02-05T11:07:56;7.40;99.90
20773;DHT22;10546;50.674;4.616;2023-02-05T11:10:28;7.50;99.90
20773;DHT22;10546;50.674;4.616;2023-02-05T11:15:56;7.40;99.90
20773;DHT22;10546;50.674;4.616;2023-02-05T11:18:26;7.60;99.90
20773;DHT22;10546;50.674;4.616;2023-02-05T11:21:00;7.70;99.90
20773;DHT22;10546;50.674;4.616;2023-02-05T11:23:27;8.10;99.90
20773;DHT22;10546;50.674;4.616;2023-02-05T11:26:22;9.30;99.90
20773;DHT22;10546;50.674;4.616;2023-02-05T11:28:51;10.10;99.90
20773;DHT22;10546;50.674;4.616;2023-02-05T11:31:31;10.00;99.90
20773;DHT22;10546;50.674;4.616;2023-02-05T11:34:23;9.60;99.90
20773;DHT22;10546;50.674;4.616;2023-02-05T11:36:52;9.00;99.90
20773;DHT22;10546;50.674;4.616;2023-02-05T11:42:09;8.50;99.90
20773;DHT22;10546;50.674;4.616;2023-02-05T11:44:56;8.40;99.90
20773;DHT22;10546;50.674;4.616;2023-02-05T11:47:27;8.30;99.90
20773;DHT22;10546;50.674;4.616;2023-02-05T11:49:54;8.20;99.90
20773;DHT22;10546;50.674;4.616;2023-02-05T11:52:30;8.10;99.90
20773;DHT22;10546;50.674;4.616;2023-02-05T11:54:57;8.20;99.90
20773;DHT22;10546;50.674;4.616;2023-02-05T11:57:29;8.10;99.90
20773;DHT22;10546;50.674;4.616;2023-02-05T12:00:01;8.30;99.90
20773;DHT22;10546;50.674;4.616;2023-02-05T12:02:28;8.00;99.90
20773;DHT22;10546;50.674;4.616;2023-02-05T12:07:46;8.20;99.90
20773;DHT22;10546;50.674;4.616;2023-02-05T12:10:17;9.00;99.90
20773;DHT22;10546;50.674;4.616;2023-02-05T12:12:55;9.70;99.90
20773;DHT22;10546;50.674;4.616;2023-02-05T12:15:28;10.00;99.90
20773;DHT22;10546;50.674;4.616;2023-02-05T12:20:48;9.80;99.90
20773;DHT22;10546;50.674;4.616;2023-02-05T12:28:56;9.30;99.90
20773;DHT22;10546;50.674;4.616;2023-02-05T13:02:00;9.00;99.90
20773;DHT22;10546;50.674;4.616;2023-02-05T13:04:35;8.90;99.90
20773;DHT22;10546;50.674;4.616;2023-02-05T13:07:20;8.80;99.90
20773;DHT22;10546;50.674;4.616;2023-02-05T13:09:57;8.60;99.90
20773;DHT22;10546;50.674;4.616;2023-02-05T13:12:26;8.80;99.90
20773;DHT22;10546;50.674;4.616;2023-02-05T13:15:21;8.90;99.90
20773;DHT22;10546;50.674;4.616;2023-02-05T13:18:04;9.20;99.90
20773;DHT22;10546;50.674;4.616;2023-02-05T13:20:39;9.20;99.90
20773;DHT22;10546;50.674;4.616;2023-02-05T13:23:24;9.20;99.90
20773;DHT22;10546;50.674;4.616;2023-02-05T13:26:12;9.20;99.90
20773;DHT22;10546;50.674;4.616;2023-02-05T13:28:51;9.10;99.90
20773;DHT22;10546;50.674;4.616;2023-02-05T13:31:38;9.30;99.90
20773;DHT22;10546;50.674;4.616;2023-02-05T13:34:08;9.20;99.90
20773;DHT22;10546;50.674;4.616;2023-02-05T13:40:14;9.60;99.90
20773;DHT22;10546;50.674;4.616;2023-02-05T13:48:04;9.40;99.90
20773;DHT22;10546;50.674;4.616;2023-02-05T13:56:39;9.40;99.90
20773;DHT22;10546;50.674;4.616;2023-02-05T14:01:46;9.20;99.90
20773;DHT22;10546;50.674;4.616;2023-02-05T14:06:49;9.00;99.90
20773;DHT22;10546;50.674;4.616;2023-02-05T14:09:23;8.90;99.90
20773;DHT22;10546;50.674;4.616;2023-02-05T14:11:56;8.90;99.90
20773;DHT22;10546;50.674;4.616;2023-02-05T14:14:25;8.80;99.90
20773;DHT22;10546;50.674;4.616;2023-02-05T14:16:50;8.80;99.90
20773;DHT22;10546;50.674;4.616;2023-02-05T14:19:22;8.80;99.90
20773;DHT22;10546;50.674;4.616;2023-02-05T14:22:08;9.00;99.90
20773;DHT22;10546;50.674;4.616;2023-02-05T14:24:46;9.10;99.90
20773;DHT22;10546;50.674;4.616;2023-02-05T14:33:00;8.70;99.90
20773;DHT22;10546;50.674;4.616;2023-02-05T14:35:34;8.80;99.90
20773;DHT22;10546;50.674;4.616;2023-02-05T14:38:27;8.90;99.90
20773;DHT22;10546;50.674;4.616;2023-02-05T14:44:19;9.00;99.90
20773;DHT22;10546;50.674;4.616;2023-02-05T14:47:22;8.80;99.90
20773;DHT22;10546;50.674;4.616;2023-02-05T14:50:05;8.70;99.90
20773;DHT22;10546;50.674;4.616;2023-02-05T14:52:38;8.50;99.90
20773;DHT22;10546;50.674;4.616;2023-02-05T14:55:19;8.40;99.90
20773;DHT22;10546;50.674;4.616;2023-02-05T15:00:32;8.30;99.90
20773;DHT22;10546;50.674;4.616;2023-02-05T15:19:40;8.30;99.90
20773;DHT22;10546;50.674;4.616;2023-02-05T15:22:36;8.40;99.90
20773;DHT22;10546;50.674;4.616;2023-02-05T15:25:09;8.40;99.90
20773;DHT22;10546;50.674;4.616;2023-02-05T15:27:45;8.30;99.90
20773;DHT22;10546;50.674;4.616;2023-02-05T15:30:17;8.20;99.90
20773;DHT22;10546;50.674;4.616;2023-02-05T15:32:59;8.30;99.90
20773;DHT22;10546;50.674;4.616;2023-02-05T15:35:27;8.10;99.90
20773;DHT22;10546;50.674;4.616;2023-02-05T15:38:02;8.10;99.90
20773;DHT22;10546;50.674;4.616;2023-02-05T15:40:30;8.10;99.90
20773;DHT22;10546;50.674;4.616;2023-02-05T15:43:10;8.20;99.90
20773;DHT22;10546;50.674;4.616;2023-02-05T15:45:36;8.10;99.90
20773;DHT22;10546;50.674;4.616;2023-02-05T15:50:49;8.20;99.90
20773;DHT22;10546;50.674;4.616;2023-02-05T15:53:44;8.00;99.90
20773;DHT22;10546;50.674;4.616;2023-02-05T15:56:31;8.10;99.90
20773;DHT22;10546;50.674;4.616;2023-02-05T16:01:29;8.10;99.90
20773;DHT22;10546;50.674;4.616;2023-02-05T16:03:55;8.10;99.90
20773;DHT22;10546;50.674;4.616;2023-02-05T16:06:22;8.00;99.90
20773;DHT22;10546;50.674;4.616;2023-02-05T16:08:50;7.90;99.90
20773;DHT22;10546;50.674;4.616;2023-02-05T16:11:28;8.00;99.90
20773;DHT22;10546;50.674;4.616;2023-02-05T16:14:14;8.00;99.90
20773;DHT22;10546;50.674;4.616;2023-02-05T16:17:02;7.90;99.90
20773;DHT22;10546;50.674;4.616;2023-02-05T16:22:22;7.80;99.90
20773;DHT22;10546;50.674;4.616;2023-02-05T16:24:52;7.70;99.90
20773;DHT22;10546;50.674;4.616;2023-02-05T16:27:42;7.80;99.90
20773;DHT22;10546;50.674;4.616;2023-02-05T16:32:59;7.60;99.90
20773;DHT22;10546;50.674;4.616;2023-02-05T16:35:38;7.40;99.90
20773;DHT22;10546;50.674;4.616;2023-02-05T16:38:05;7.30;99.90
20773;DHT22;10546;50.674;4.616;2023-02-05T16:40:43;7.20;99.90
20773;DHT22;10546;50.674;4.616;2023-02-05T16:43:36;7.20;99.90
20773;DHT22;10546;50.674;4.616;2023-02-05T16:48:55;7.00;99.90
20773;DHT22;10546;50.674;4.616;2023-02-05T16:57:01;6.80;99.90
20773;DHT22;10546;50.674;4.616;2023-02-05T16:59:34;6.80;99.90
20773;DHT22;10546;50.674;4.616;2023-02-05T17:02:03;6.70;99.90
20773;DHT22;10546;50.674;4.616;2023-02-05T17:04:33;6.70;99.90
20773;DHT22;10546;50.674;4.616;2023-02-05T17:07:00;6.60;99.90
20773;DHT22;10546;50.674;4.616;2023-02-05T17:09:34;6.70;99.90
20773;DHT22;10546;50.674;4.616;2023-02-05T17:12:36;6.60;99.90
20773;DHT22;10546;50.674;4.616;2023-02-05T17:15:23;6.50;99.90
20773;DHT22;10546;50.674;4.616;2023-02-05T17:17:57;6.50;99.90
20773;DHT22;10546;50.674;4.616;2023-02-05T17:20:27;6.50;99.90
20773;DHT22;10546;50.674;4.616;2023-02-05T17:25:26;6.40;99.90
20773;DHT22;10546;50.674;4.616;2023-02-05T17:27:52;6.40;99.90
20773;DHT22;10546;50.674;4.616;2023-02-05T17:30:18;6.30;99.90
20773;DHT22;10546;50.674;4.616;2023-02-05T17:32:45;6.30;99.90
20773;DHT22;10546;50.674;4.616;2023-02-05T17:35:19;6.20;99.90
20773;DHT22;10546;50.674;4.616;2023-02-05T17:37:54;6.10;99.90
20773;DHT22;10546;50.674;4.616;2023-02-05T17:40:19;6.20;99.90
20773;DHT22;10546;50.674;4.616;2023-02-05T17:42:46;6.20;99.90
20773;DHT22;10546;50.674;4.616;2023-02-05T17:45:22;6.10;99.90
20773;DHT22;10546;50.674;4.616;2023-02-05T17:47:47;6.10;99.90
20773;DHT22;10546;50.674;4.616;2023-02-05T17:50:14;6.10;99.90
20773;DHT22;10546;50.674;4.616;2023-02-05T17:52:40;6.00;99.90
20773;DHT22;10546;50.674;4.616;2023-02-05T17:55:06;6.00;99.90
20773;DHT22;10546;50.674;4.616;2023-02-05T17:57:34;6.00;99.90
20773;DHT22;10546;50.674;4.616;2023-02-05T18:00:02;6.00;99.90
20773;DHT22;10546;50.674;4.616;2023-02-05T18:02:28;5.90;99.90
20773;DHT22;10546;50.674;4.616;2023-02-05T18:04:54;5.90;99.90
20773;DHT22;10546;50.674;4.616;2023-02-05T18:07:32;5.90;99.90
20773;DHT22;10546;50.674;4.616;2023-02-05T18:09:59;5.80;99.90
20773;DHT22;10546;50.674;4.616;2023-02-05T18:12:26;5.80;99.90
20773;DHT22;10546;50.674;4.616;2023-02-05T18:14:52;5.90;99.90
20773;DHT22;10546;50.674;4.616;2023-02-05T18:17:18;5.80;99.90
20773;DHT22;10546;50.674;4.616;2023-02-05T18:19:44;5.80;99.90
20773;DHT22;10546;50.674;4.616;2023-02-05T18:22:13;5.70;99.90
20773;DHT22;10546;50.674;4.616;2023-02-05T18:24:38;5.70;99.90
20773;DHT22;10546;50.674;4.616;2023-02-05T18:27:05;5.60;99.90
20773;DHT22;10546;50.674;4.616;2023-02-05T18:29:37;5.70;99.90
20773;DHT22;10546;50.674;4.616;2023-02-05T18:32:04;5.80;99.90
20773;DHT22;10546;50.674;4.616;2023-02-05T18:34:29;5.60;99.90
20773;DHT22;10546;50.674;4.616;2023-02-05T18:36:55;5.60;99.90
20773;DHT22;10546;50.674;4.616;2023-02-05T18:39:21;5.70;99.90
20773;DHT22;10546;50.674;4.616;2023-02-05T18:41:47;5.50;99.90
20773;DHT22;10546;50.674;4.616;2023-02-05T18:44:13;5.60;99.90
20773;DHT22;10546;50.674;4.616;2023-02-05T18:46:40;5.50;99.90
20773;DHT22;10546;50.674;4.616;2023-02-05T18:49:06;5.50;99.90
20773;DHT22;10546;50.674;4.616;2023-02-05T18:51:31;5.40;99.90
20773;DHT22;10546;50.674;4.616;2023-02-05T18:53:57;5.40;99.90
20773;DHT22;10546;50.674;4.616;2023-02-05T18:56:25;5.40;99.90
20773;DHT22;10546;50.674;4.616;2023-02-05T18:58:54;5.50;99.90
20773;DHT22;10546;50.674;4.616;2023-02-05T19:01:21;5.30;99.90
20773;DHT22;10546;50.674;4.616;2023-02-05T19:03:47;5.30;99.90
20773;DHT22;10546;50.674;4.616;2023-02-05T19:06:16;5.40;99.90
20773;DHT22;10546;50.674;4.616;2023-02-05T19:08:43;5.50;99.90
20773;DHT22;10546;50.674;4.616;2023-02-05T19:11:11;5.40;99.90
20773;DHT22;10546;50.674;4.616;2023-02-05T19:13:37;5.30;99.90
20773;DHT22;10546;50.674;4.616;2023-02-05T19:16:15;5.20;99.90
20773;DHT22;10546;50.674;4.616;2023-02-05T19:18:42;5.30;99.90
20773;DHT22;10546;50.674;4.616;2023-02-05T19:21:11;5.20;99.90
20773;DHT22;10546;50.674;4.616;2023-02-05T19:23:38;5.30;99.90
20773;DHT22;10546;50.674;4.616;2023-02-05T19:26:05;5.10;99.90
20773;DHT22;10546;50.674;4.616;2023-02-05T19:28:31;5.10;99.90
20773;DHT22;10546;50.674;4.616;2023-02-05T19:31:00;5.10;99.90
20773;DHT22;10546;50.674;4.616;2023-02-05T19:33:26;5.10;99.90
20773;DHT22;10546;50.674;4.616;2023-02-05T19:35:51;5.10;99.90
20773;DHT22;10546;50.674;4.616;2023-02-05T19:38:17;5.00;99.90
20773;DHT22;10546;50.674;4.616;2023-02-05T19:40:42;4.90;99.90
20773;DHT22;10546;50.674;4.616;2023-02-05T19:43:08;4.90;99.90
20773;DHT22;10546;50.674;4.616;2023-02-05T19:45:36;4.90;99.90
20773;DHT22;10546;50.674;4.616;2023-02-05T19:48:02;4.90;99.90
20773;DHT22;10546;50.674;4.616;2023-02-05T19:50:29;4.90;99.90
20773;DHT22;10546;50.674;4.616;2023-02-05T19:52:55;4.90;99.90
20773;DHT22;10546;50.674;4.616;2023-02-05T19:55:21;4.90;99.90
20773;DHT22;10546;50.674;4.616;2023-02-05T19:57:46;4.90;99.90
20773;DHT22;10546;50.674;4.616;2023-02-05T20:00:12;4.90;99.90
20773;DHT22;10546;50.674;4.616;2023-02-05T20:02:38;4.90;99.90
20773;DHT22;10546;50.674;4.616;2023-02-05T20:05:04;4.80;99.90
20773;DHT22;10546;50.674;4.616;2023-02-05T20:07:29;4.60;99.90
20773;DHT22;10546;50.674;4.616;2023-02-05T20:09:57;4.80;99.90
20773;DHT22;10546;50.674;4.616;2023-02-05T20:12:23;4.90;99.90
20773;DHT22;10546;50.674;4.616;2023-02-05T20:14:49;4.70;99.90
20773;DHT22;10546;50.674;4.616;2023-02-05T20:17:14;4.70;99.90
20773;DHT22;10546;50.674;4.616;2023-02-05T20:19:42;4.60;99.90
20773;DHT22;10546;50.674;4.616;2023-02-05T20:22:08;4.60;99.90
20773;DHT22;10546;50.674;4.616;2023-02-05T20:24:33;4.60;99.90
20773;DHT22;10546;50.674;4.616;2023-02-05T20:26:59;4.70;99.90
20773;DHT22;10546;50.674;4.616;2023-02-05T20:29:24;4.60;99.90
20773;DHT22;10546;50.674;4.616;2023-02-05T20:32:09;4.50;99.90
20773;DHT22;10546;50.674;4.616;2023-02-05T20:34:34;4.50;99.90
20773;DHT22;10546;50.674;4.616;2023-02-05T20:37:03;4.60;99.90
20773;DHT22;10546;50.674;4.616;2023-02-05T20:39:30;4.50;99.90
20773;DHT22;10546;50.674;4.616;2023-02-05T20:41:58;4.50;99.90
20773;DHT22;10546;50.674;4.616;2023-02-05T20:44:25;4.50;99.90
20773;DHT22;10546;50.674;4.616;2023-02-05T20:46:51;4.70;99.90
20773;DHT22;10546;50.674;4.616;2023-02-05T20:49:17;4.60;99.90
20773;DHT22;10546;50.674;4.616;2023-02-05T20:51:43;4.40;99.90
20773;DHT22;10546;50.674;4.616;2023-02-05T20:54:09;4.30;99.90
20773;DHT22;10546;50.674;4.616;2023-02-05T20:56:35;4.40;99.90
20773;DHT22;10546;50.674;4.616;2023-02-05T20:59:02;4.40;99.90
20773;DHT22;10546;50.674;4.616;2023-02-05T21:01:30;4.40;99.90
20773;DHT22;10546;50.674;4.616;2023-02-05T21:03:58;4.40;99.90
20773;DHT22;10546;50.674;4.616;2023-02-05T21:06:27;4.40;99.90
20773;DHT22;10546;50.674;4.616;2023-02-05T21:08:53;4.50;99.90
20773;DHT22;10546;50.674;4.616;2023-02-05T21:11:21;4.40;99.90
20773;DHT22;10546;50.674;4.616;2023-02-05T21:13:48;4.40;99.90
20773;DHT22;10546;50.674;4.616;2023-02-05T21:16:16;4.30;99.90
20773;DHT22;10546;50.674;4.616;2023-02-05T21:18:46;4.40;99.90
20773;DHT22;10546;50.674;4.616;2023-02-05T21:21:15;4.40;99.90
20773;DHT22;10546;50.674;4.616;2023-02-05T21:23:42;4.30;99.90
20773;DHT22;10546;50.674;4.616;2023-02-05T21:26:17;4.20;99.90
20773;DHT22;10546;50.674;4.616;2023-02-05T21:28:43;4.40;99.90
20773;DHT22;10546;50.674;4.616;2023-02-05T21:31:09;4.40;99.90
20773;DHT22;10546;50.674;4.616;2023-02-05T21:33:35;4.20;99.90
20773;DHT22;10546;50.674;4.616;2023-02-05T21:36:05;4.30;99.90
20773;DHT22;10546;50.674;4.616;2023-02-05T21:38:35;4.30;99.90
20773;DHT22;10546;50.674;4.616;2023-02-05T21:41:19;4.30;99.90
20773;DHT22;10546;50.674;4.616;2023-02-05T21:43:55;4.40;99.90
20773;DHT22;10546;50.674;4.616;2023-02-05T21:46:26;4.10;99.90
20773;DHT22;10546;50.674;4.616;2023-02-05T21:48:54;4.20;99.90
20773;DHT22;10546;50.674;4.616;2023-02-05T21:51:22;4.10;99.90
20773;DHT22;10546;50.674;4.616;2023-02-05T21:53:55;4.30;99.90
20773;DHT22;10546;50.674;4.616;2023-02-05T21:56:25;4.10;99.90
20773;DHT22;10546;50.674;4.616;2023-02-05T21:58:51;4.30;99.90
20773;DHT22;10546;50.674;4.616;2023-02-05T22:01:19;4.20;99.90
20773;DHT22;10546;50.674;4.616;2023-02-05T22:03:51;4.10;99.90
20773;DHT22;10546;50.674;4.616;2023-02-05T22:06:18;4.10;99.90
20773;DHT22;10546;50.674;4.616;2023-02-05T22:08:44;4.10;99.90
20773;DHT22;10546;50.674;4.616;2023-02-05T22:11:12;4.10;99.90
20773;DHT22;10546;50.674;4.616;2023-02-05T22:13:40;4.20;99.90
20773;DHT22;10546;50.674;4.616;2023-02-05T22:16:08;4.30;99.90
20773;DHT22;10546;50.674;4.616;2023-02-05T22:18:34;4.30;99.90
20773;DHT22;10546;50.674;4.616;2023-02-05T22:21:12;4.30;99.90
20773;DHT22;10546;50.674;4.616;2023-02-05T22:23:39;4.30;99.90
20773;DHT22;10546;50.674;4.616;2023-02-05T22:26:05;4.30;99.90
20773;DHT22;10546;50.674;4.616;2023-02-05T22:28:31;4.60;99.90
20773;DHT22;10546;50.674;4.616;2023-02-05T22:31:03;4.60;99.90
20773;DHT22;10546;50.674;4.616;2023-02-05T22:33:30;4.50;99.90
20773;DHT22;10546;50.674;4.616;2023-02-05T22:35:57;4.50;99.90
20773;DHT22;10546;50.674;4.616;2023-02-05T22:38:23;4.60;99.90
20773;DHT22;10546;50.674;4.616;2023-02-05T22:40:48;4.60;99.90
20773;DHT22;10546;50.674;4.616;2023-02-05T22:43:14;4.60;99.90
20773;DHT22;10546;50.674;4.616;2023-02-05T22:45:40;4.60;99.90
20773;DHT22;10546;50.674;4.616;2023-02-05T22:48:07;4.70;99.90
20773;DHT22;10546;50.674;4.616;2023-02-05T22:50:40;4.60;99.90
20773;DHT22;10546;50.674;4.616;2023-02-05T22:53:06;4.70;99.90
20773;DHT22;10546;50.674;4.616;2023-02-05T22:55:36;4.60;99.90
20773;DHT22;10546;50.674;4.616;2023-02-05T22:58:03;4.70;99.90
